Time;durP1;ratioP1;P1;durP2;ratioP2;P2;SDS_P1;SDS_P2;PMS_P1;PMS_P2;Temp;Humidity;BMP_temperature;BMP_pressure;BME280_temperature;BME280_humidity;BME280_pressure;Samples;Min_cycle;Max_cycle;Signal;HPM_P1;HPM_P2
2021/04/07 00:00:34;;;;;;;5.78;1.63;;;;;;;0.34;78.96;100421.22;5090812;28;20031;-46
2021/04/07 00:03:00;;;;;;;7.05;1.67;;;;;;;0.38;78.92;100412.78;5093644;28;20055;-46
2021/04/07 00:05:34;;;;;;;6.30;1.30;;;;;;;0.23;79.36;100404.13;5092131;28;20070;-46
2021/04/07 00:08:01;;;;;;;6.68;1.70;;;;;;;0.25;79.24;100408.19;5095005;28;20059;-46
2021/04/07 00:10:36;;;;;;;6.68;1.60;;;;;;;0.20;79.35;100407.94;5091436;28;20031;-47
2021/04/07 00:13:01;;;;;;;;;;;;;;;0.24;79.01;100421.56;5091025;28;20707;-45
2021/04/07 00:15:28;;;;;;;3.80;1.80;;;;;;;0.40;78.28;100425.75;5077861;28;19912;-47
2021/04/07 00:17:55;;;;;;;8.23;2.13;;;;;;;0.43;78.45;100414.84;5088176;28;20477;-46
2021/04/07 00:20:23;;;;;;;10.93;1.88;;;;;;;0.51;77.81;100412.03;5092512;28;20106;-46
2021/04/07 00:22:49;;;;;;;4.70;1.17;;;;;;;0.47;77.98;100410.81;5095484;28;20035;-45
2021/04/07 00:25:16;;;;;;;4.85;2.03;;;;;;;0.41;77.87;100422.94;5090714;28;20023;-45
2021/04/07 00:27:44;;;;;;;4.35;1.40;;;;;;;0.37;78.02;100416.41;5090394;28;20036;-49
2021/04/07 00:30:11;;;;;;;3.55;1.65;;;;;;;0.24;78.84;100417.09;5091085;28;20016;-46
2021/04/07 00:32:37;;;;;;;5.95;1.75;;;;;;;0.19;78.81;100419.50;5091258;28;20031;-49
2021/04/07 00:35:04;;;;;;;11.55;2.22;;;;;;;0.10;79.50;100423.25;5090218;28;20020;-46
2021/04/07 00:37:30;;;;;;;12.25;2.67;;;;;;;0.09;79.62;100426.88;5086864;28;20043;-48
2021/04/07 00:39:55;;;;;;;4.88;1.50;;;;;;;0.21;78.70;100414.84;5099205;28;20478;-46
2021/04/07 00:42:22;;;;;;;4.65;1.60;;;;;;;0.16;78.53;100427.75;5091815;28;20500;-46
2021/04/07 00:44:48;;;;;;;7.82;2.42;;;;;;;0.12;78.94;100423.06;5091850;28;20915;-46
2021/04/07 00:47:17;;;;;;;8.30;2.40;;;;;;;-0.07;79.88;100419.22;5094957;28;20019;-45
2021/04/07 00:49:43;;;;;;;3.90;1.55;;;;;;;0.12;79.08;100423.88;5098351;28;20085;-46
2021/04/07 00:52:09;;;;;;;6.10;1.88;;;;;;;0.10;79.24;100428.50;5091014;28;20028;-45
2021/04/07 00:54:35;;;;;;;7.18;1.92;;;;;;;0.09;79.38;100431.34;5090046;28;20035;-48
2021/04/07 00:57:01;;;;;;;5.07;1.80;;;;;;;0.08;79.49;100429.72;5088132;28;20031;-49
2021/04/07 00:59:27;;;;;;;9.43;3.20;;;;;;;0.15;78.97;100438.47;5090183;28;20028;-49
2021/04/07 01:01:55;;;;;;;4.75;2.00;;;;;;;0.17;78.79;100431.19;5091559;28;20032;-47
2021/04/07 01:04:23;;;;;;;7.10;2.22;;;;;;;0.18;79.23;100440.72;5090557;28;20101;-47
2021/04/07 01:06:50;;;;;;;8.52;2.60;;;;;;;0.20;79.38;100444.84;5096023;28;20051;-46
2021/04/07 01:09:15;;;;;;;7.40;2.00;;;;;;;0.25;79.08;100436.38;5092863;28;20024;-46
2021/04/07 01:11:41;;;;;;;4.88;2.38;;;;;;;0.30;78.59;100429.50;5087566;28;20043;-47
2021/04/07 01:14:07;;;;;;;4.55;2.05;;;;;;;0.36;78.43;100432.38;5091297;28;20023;-46
2021/04/07 01:16:32;;;;;;;5.30;1.83;;;;;;;0.42;77.89;100445.66;5068130;28;20035;-45
2021/04/07 01:18:58;;;;;;;10.45;2.92;;;;;;;0.46;77.66;100435.53;5094203;28;20027;-46
2021/04/07 01:21:24;;;;;;;7.53;2.20;;;;;;;0.50;77.61;100445.50;5080148;28;20040;-45
2021/04/07 01:23:49;;;;;;;7.80;3.70;;;;;;;0.54;77.45;100445.97;5089447;28;20031;-45
2021/04/07 01:26:17;;;;;;;9.68;2.63;;;;;;;0.63;76.50;100452.72;5085704;28;20024;-47
2021/04/07 01:28:43;;;;;;;11.88;2.25;;;;;;;0.60;76.67;100455.75;5092941;28;20039;-46
2021/04/07 01:31:09;;;;;;;6.32;2.85;;;;;;;0.60;76.72;100459.19;5087567;28;20042;-46
2021/04/07 01:33:35;;;;;;;8.80;2.33;;;;;;;0.55;76.82;100460.78;5088618;28;20027;-46
2021/04/07 01:36:01;;;;;;;8.25;2.75;;;;;;;0.71;76.07;100457.84;5089531;28;20053;-46
2021/04/07 01:38:27;;;;;;;4.20;2.33;;;;;;;0.62;76.46;100456.34;5090188;28;20034;-46
2021/04/07 01:40:55;;;;;;;9.95;3.20;;;;;;;0.56;76.15;100457.13;5088530;28;20032;-45
2021/04/07 01:43:21;;;;;;;12.50;2.33;;;;;;;0.50;76.47;100468.41;5098148;28;20078;-46
2021/04/07 01:45:48;;;;;;;8.00;2.28;;;;;;;0.44;77.17;100471.81;5092001;28;20418;-46
2021/04/07 01:48:14;;;;;;;8.38;2.42;;;;;;;0.44;77.55;100467.34;5093942;28;20032;-46
2021/04/07 01:50:42;;;;;;;8.02;2.88;;;;;;;0.55;77.03;100466.03;5091218;28;20052;-46
2021/04/07 01:53:18;;;;;;;7.60;2.38;;;;;;;0.60;76.41;100469.72;5097745;28;20019;-45
2021/04/07 01:55:44;;;;;;;8.05;2.50;;;;;;;0.60;76.79;100458.38;5091353;28;20030;-46
2021/04/07 01:58:11;;;;;;;6.90;2.92;;;;;;;0.63;76.32;100458.00;5097338;28;20032;-46
2021/04/07 02:00:36;;;;;;;8.45;2.70;;;;;;;0.64;76.35;100459.63;5090984;28;20028;-46
2021/04/07 02:03:03;;;;;;;7.70;2.90;;;;;;;0.66;76.48;100467.34;5091975;28;20393;-46
2021/04/07 02:05:30;;;;;;;6.45;2.60;;;;;;;0.69;76.11;100480.94;5076831;28;20028;-46
2021/04/07 02:07:56;;;;;;;7.03;2.88;;;;;;;0.83;75.52;100466.88;5073451;28;20028;-47
2021/04/07 02:10:22;;;;;;;9.15;2.92;;;;;;;0.75;75.91;100474.94;5068642;28;20085;-46
2021/04/07 02:12:57;;;;;;;7.95;2.95;;;;;;;0.67;76.21;100468.97;5074609;28;20024;-46
2021/04/07 02:15:23;;;;;;;9.68;2.97;;;;;;;0.70;76.12;100472.03;5058050;28;20029;-46
2021/04/07 02:17:49;;;;;;;6.13;3.45;;;;;;;0.75;76.24;100474.13;5075138;28;20450;-47
2021/04/07 02:20:15;;;;;;;7.32;2.75;;;;;;;0.75;76.03;100469.66;5058137;28;20107;-46
2021/04/07 02:22:41;;;;;;;10.90;3.10;;;;;;;0.72;76.59;100477.13;5074238;28;20813;-45
2021/04/07 02:25:09;;;;;;;12.95;2.80;;;;;;;0.75;76.56;100482.03;5073967;28;20032;-45
2021/04/07 02:27:35;;;;;;;7.78;2.80;;;;;;;0.73;76.28;100484.03;5079128;28;20050;-46
2021/04/07 02:30:04;;;;;;;8.82;2.58;;;;;;;0.67;76.12;100488.22;5054705;28;20561;-47
2021/04/07 02:32:30;;;;;;;7.68;2.65;;;;;;;0.64;75.76;100480.72;5074261;28;20611;-46
2021/04/07 02:34:56;;;;;;;7.97;2.58;;;;;;;0.59;76.25;100488.38;5071556;28;20024;-45
2021/04/07 02:37:21;;;;;;;14.93;4.25;;;;;;;0.55;76.93;100502.94;5072991;28;20525;-47
2021/04/07 02:39:48;;;;;;;8.48;3.70;;;;;;;0.56;76.09;100494.84;5051093;28;20398;-46
2021/04/07 02:42:15;;;;;;;10.63;3.35;;;;;;;0.59;75.94;100483.91;5069225;28;20063;-46
2021/04/07 02:44:41;;;;;;;9.32;3.03;;;;;;;0.47;76.83;100500.41;5073766;28;20020;-46
2021/04/07 02:47:08;;;;;;;6.25;2.80;;;;;;;0.49;76.36;100501.88;5073426;28;20028;-46
2021/04/07 02:49:34;;;;;;;7.00;2.45;;;;;;;0.58;75.90;100505.19;5068082;28;20027;-45
2021/04/07 02:52:00;;;;;;;8.98;3.58;;;;;;;0.56;76.21;100512.50;5068558;28;20714;-46
2021/04/07 02:54:26;;;;;;;8.38;3.25;;;;;;;0.53;75.80;100505.75;5072782;28;20112;-46
2021/04/07 02:56:51;;;;;;;6.88;2.92;;;;;;;0.61;75.59;100510.09;5069509;28;20040;-45
2021/04/07 02:59:17;;;;;;;11.80;3.40;;;;;;;0.52;75.51;100519.13;5069975;28;20023;-46
2021/04/07 03:01:43;;;;;;;7.82;2.75;;;;;;;0.61;75.69;100515.38;5068758;28;20028;-46
2021/04/07 03:04:09;;;;;;;9.57;3.05;;;;;;;0.56;76.41;100513.31;5074130;28;20032;-45
2021/04/07 03:06:35;;;;;;;12.05;3.55;;;;;;;0.60;76.50;100519.81;5089125;28;20550;-47
2021/04/07 03:09:00;;;;;;;11.45;3.17;;;;;;;0.59;76.03;100526.09;5087737;28;20504;-46
2021/04/07 03:11:29;;;;;;;15.98;3.97;;;;;;;0.57;75.74;100527.31;5091322;28;20107;-47
2021/04/07 03:13:54;;;;;;;6.75;2.67;;;;;;;0.62;75.99;100522.28;5090582;28;20023;-46
2021/04/07 03:16:20;;;;;;;7.25;3.15;;;;;;;0.56;75.67;100520.41;5092610;28;20083;-46
2021/04/07 03:18:46;;;;;;;8.40;2.40;;;;;;;0.51;76.10;100535.94;5092744;28;20027;-46
2021/04/07 03:21:11;;;;;;;5.00;2.22;;;;;;;0.56;75.78;100536.22;5090191;28;20035;-45
2021/04/07 03:23:37;;;;;;;9.63;3.03;;;;;;;0.43;76.42;100530.81;5087976;28;20039;-45
2021/04/07 03:26:03;;;;;;;7.38;2.33;;;;;;;0.45;76.05;100526.16;5088102;28;20131;-46
2021/04/07 03:28:29;;;;;;;10.82;2.25;;;;;;;0.46;75.98;100525.97;5093260;28;20039;-47
2021/04/07 03:30:55;;;;;;;8.93;2.63;;;;;;;0.51;75.69;100530.66;5098364;28;20051;-46
2021/04/07 03:33:20;;;;;;;10.55;3.05;;;;;;;0.43;75.87;100533.44;5096860;28;20551;-48
2021/04/07 03:35:47;;;;;;;6.95;2.75;;;;;;;0.35;75.91;100539.63;5087134;28;20032;-46
2021/04/07 03:38:14;;;;;;;8.57;3.42;;;;;;;0.16;76.54;100538.41;5092208;28;20062;-46
2021/04/07 03:40:40;;;;;;;12.07;2.60;;;;;;;0.28;76.62;100534.28;5091689;28;20035;-46
2021/04/07 03:43:17;;;;;;;8.02;3.10;;;;;;;0.22;76.98;100550.84;5090629;28;20477;-46
2021/04/07 03:45:43;;;;;;;6.43;2.45;;;;;;;0.29;76.42;100549.09;5093332;28;20533;-45
2021/04/07 03:48:14;;;;;;;7.47;2.38;;;;;;;0.34;76.33;100558.25;5092031;28;20114;-45
2021/04/07 03:50:41;;;;;;;8.15;4.18;;;;;;;0.35;76.30;100554.63;5091208;28;20034;-45
2021/04/07 03:53:07;;;;;;;7.38;2.67;;;;;;;0.30;76.46;100553.38;5079650;28;20039;-46
2021/04/07 03:55:33;;;;;;;8.27;2.83;;;;;;;0.24;76.98;100567.28;5092237;28;20100;-46
2021/04/07 03:57:59;;;;;;;12.77;2.78;;;;;;;0.23;76.69;100557.75;5093569;28;20477;-48
2021/04/07 04:00:25;;;;;;;7.22;2.35;;;;;;;0.37;76.19;100558.72;5087860;28;20039;-46
2021/04/07 04:02:50;;;;;;;10.07;3.25;;;;;;;0.18;76.80;100560.13;5092152;28;20028;-47
2021/04/07 04:05:16;;;;;;;7.28;2.78;;;;;;;0.25;76.99;100561.03;5089453;28;20031;-48
2021/04/07 04:07:42;;;;;;;12.80;2.92;;;;;;;0.25;76.59;100557.56;5089362;28;20224;-46
2021/04/07 04:10:09;;;;;;;9.48;2.80;;;;;;;0.21;76.59;100558.94;5093713;28;20031;-46
2021/04/07 04:12:34;;;;;;;7.57;2.65;;;;;;;0.24;76.10;100561.22;5090303;28;20024;-46
2021/04/07 04:15:00;;;;;;;10.65;3.60;;;;;;;0.10;77.10;100562.84;5079328;28;20046;-47
2021/04/07 04:17:26;;;;;;;11.63;2.97;;;;;;;0.11;77.57;100568.94;5092072;28;20169;-49
2021/04/07 04:19:51;;;;;;;10.10;2.95;;;;;;;0.13;77.03;100565.13;5088278;28;20092;-46
2021/04/07 04:22:17;;;;;;;8.18;2.65;;;;;;;0.05;76.79;100570.50;5091251;28;20051;-46
2021/04/07 04:24:43;;;;;;;7.45;3.33;;;;;;;0.03;77.03;100577.78;5078216;28;20043;-45
2021/04/07 04:27:09;;;;;;;6.07;2.10;;;;;;;0.05;77.22;100583.69;5094727;28;20031;-47
2021/04/07 04:29:36;;;;;;;6.35;2.15;;;;;;;0.02;77.54;100581.41;5094819;28;20023;-45
2021/04/07 04:32:03;;;;;;;11.13;3.15;;;;;;;0.10;77.58;100580.47;5096109;28;20111;-47
2021/04/07 04:34:28;;;;;;;8.77;2.90;;;;;;;0.07;77.74;100581.69;5096024;28;20031;-48
2021/04/07 04:36:54;;;;;;;11.93;2.92;;;;;;;0.05;78.17;100581.03;5091761;28;20529;-47
2021/04/07 04:39:19;;;;;;;8.93;2.80;;;;;;;0.08;77.04;100580.66;5091865;28;20386;-45
2021/04/07 04:41:45;;;;;;;8.40;3.38;;;;;;;0.12;77.39;100592.47;5094037;28;20050;-46
2021/04/07 04:44:10;;;;;;;11.52;3.10;;;;;;;0.10;77.12;100583.13;5091837;28;20039;-46
2021/04/07 04:46:36;;;;;;;10.38;3.25;;;;;;;0.12;76.92;100579.28;5093880;28;20027;-47
2021/04/07 04:49:02;;;;;;;13.27;3.85;;;;;;;0.10;77.17;100594.47;5095334;28;20101;-48
2021/04/07 04:51:27;;;;;;;12.18;2.90;;;;;;;0.12;76.95;100581.94;5083096;28;20027;-46
2021/04/07 04:53:54;;;;;;;9.73;3.22;;;;;;;0.16;76.44;100585.00;5090306;28;21083;-47
2021/04/07 04:56:20;;;;;;;10.82;3.17;;;;;;;0.02;77.24;100594.59;5092470;28;20032;-47
2021/04/07 04:58:45;;;;;;;10.48;2.80;;;;;;;0.05;77.57;100602.13;5092810;28;20023;-46
2021/04/07 05:01:11;;;;;;;10.40;3.50;;;;;;;0.15;77.11;100607.09;5091361;28;20624;-47
2021/04/07 05:03:36;;;;;;;16.73;3.58;;;;;;;0.20;76.60;100610.00;5094657;28;20028;-46
2021/04/07 05:06:02;;;;;;;13.38;3.38;;;;;;;0.29;76.84;100604.44;5094245;28;20028;-46
2021/04/07 05:08:27;;;;;;;7.30;2.42;;;;;;;0.21;76.65;100617.72;5095016;28;20020;-48
2021/04/07 05:10:53;;;;;;;7.18;2.83;;;;;;;0.29;76.87;100620.25;5092365;28;20109;-46
2021/04/07 05:13:18;;;;;;;9.50;3.00;;;;;;;0.49;75.94;100619.66;5092084;28;20899;-45
2021/04/07 05:15:44;;;;;;;7.82;2.33;;;;;;;0.62;75.34;100627.72;5093044;28;20400;-46
2021/04/07 05:18:14;;;;;;;13.63;2.65;;;;;;;0.72;74.95;100637.97;5094875;28;20030;-48
2021/04/07 05:20:40;;;;;;;4.38;1.98;;;;;;;0.74;74.45;100628.06;5096886;28;20626;-46
2021/04/07 05:23:07;;;;;;;7.72;2.22;;;;;;;0.64;75.13;100641.53;5077120;28;20027;-46
2021/04/07 05:25:32;;;;;;;8.18;2.22;;;;;;;0.64;74.84;100653.91;5098838;28;20810;-46
2021/04/07 05:28:02;;;;;;;11.48;2.38;;;;;;;0.67;74.94;100658.81;5096322;28;20042;-46
2021/04/07 05:30:28;;;;;;;7.93;2.63;;;;;;;0.76;74.07;100668.25;5077915;28;20020;-47
2021/04/07 05:32:53;;;;;;;6.15;2.53;;;;;;;0.80;74.81;100665.06;5080717;28;20126;-46
2021/04/07 05:35:19;;;;;;;13.50;2.47;;;;;;;0.93;74.52;100668.84;5078997;28;20032;-48
2021/04/07 05:37:45;;;;;;;9.38;2.70;;;;;;;0.87;74.32;100671.22;5098973;28;20036;-46
2021/04/07 05:40:10;;;;;;;11.00;2.55;;;;;;;0.85;74.69;100678.50;5094747;28;20056;-45
2021/04/07 05:42:36;;;;;;;7.05;2.55;;;;;;;0.98;74.54;100682.28;5095708;28;20023;-46
2021/04/07 05:45:02;;;;;;;8.95;2.40;;;;;;;0.96;74.07;100686.94;5095002;28;20029;-47
2021/04/07 05:47:28;;;;;;;13.48;3.08;;;;;;;0.97;74.60;100686.75;5095824;28;20035;-47
2021/04/07 05:49:53;;;;;;;7.57;2.55;;;;;;;0.98;74.70;100688.38;5097596;28;20077;-45
2021/04/07 05:52:18;;;;;;;9.73;3.13;;;;;;;1.00;75.07;100686.38;5093022;28;20662;-45
2021/04/07 05:54:44;;;;;;;9.38;2.80;;;;;;;0.98;74.26;100691.03;5094495;28;20031;-47
2021/04/07 05:57:09;;;;;;;6.82;2.38;;;;;;;1.10;74.51;100696.63;5092684;28;20138;-47
2021/04/07 05:59:35;;;;;;;13.07;2.75;;;;;;;1.09;73.90;100695.00;5092165;28;20369;-46
2021/04/07 06:02:01;;;;;;;8.30;2.72;;;;;;;1.11;73.77;100703.53;5079117;28;20020;-46
2021/04/07 06:04:27;;;;;;;7.00;2.70;;;;;;;1.16;74.27;100701.16;5093118;28;20031;-47
2021/04/07 06:06:52;;;;;;;8.15;2.47;;;;;;;1.31;73.29;100699.28;5092561;28;20035;-46
2021/04/07 06:09:18;;;;;;;6.32;2.53;;;;;;;1.30;72.90;100702.13;5093967;28;20020;-48
2021/04/07 06:11:43;;;;;;;7.03;2.78;;;;;;;1.45;72.82;100703.69;5096684;28;20181;-46
2021/04/07 06:14:09;;;;;;;9.05;2.72;;;;;;;1.40;72.23;100710.53;5094908;28;20032;-48
2021/04/07 06:16:34;;;;;;;9.77;2.28;;;;;;;1.31;72.13;100706.38;5098141;28;20424;-46
2021/04/07 06:19:00;;;;;;;7.82;2.25;;;;;;;1.48;72.27;100711.22;5093718;28;20430;-46
2021/04/07 06:21:25;;;;;;;6.07;2.53;;;;;;;1.42;71.61;100721.69;5095577;28;20016;-46
2021/04/07 06:23:51;;;;;;;7.32;2.42;;;;;;;1.37;71.89;100711.72;5096138;28;20026;-46
2021/04/07 06:26:16;;;;;;;8.43;1.80;;;;;;;1.58;71.61;100713.53;5095948;28;20108;-46
2021/04/07 06:28:42;;;;;;;11.48;3.60;;;;;;;1.57;71.87;100709.25;5094487;28;20028;-46
2021/04/07 06:31:07;;;;;;;9.23;2.75;;;;;;;1.69;70.69;100720.13;5096373;28;20028;-47
2021/04/07 06:33:34;;;;;;;4.40;1.67;;;;;;;1.72;70.81;100722.38;5091228;28;20115;-46
2021/04/07 06:36:06;;;;;;;9.48;2.30;;;;;;;1.66;70.58;100712.59;5091932;28;20553;-48
2021/04/07 06:38:33;;;;;;;6.40;2.20;;;;;;;1.84;69.69;100715.59;5090373;28;20024;-49
2021/04/07 06:40:59;;;;;;;7.80;2.22;;;;;;;1.74;69.86;100712.44;5094249;28;20028;-46
2021/04/07 06:43:28;;;;;;;10.93;2.13;;;;;;;1.84;70.02;100735.91;5089413;28;20020;-48
2021/04/07 06:45:54;;;;;;;4.82;1.92;;;;;;;1.83;69.72;100731.63;5088669;28;20039;-46
2021/04/07 06:48:20;;;;;;;6.72;2.88;;;;;;;1.69;70.05;100738.63;5079660;28;20031;-46
2021/04/07 06:50:48;;;;;;;5.07;1.88;;;;;;;1.78;70.35;100729.53;5091956;28;20509;-47
2021/04/07 06:53:16;;;;;;;4.28;2.03;;;;;;;1.76;70.87;100736.84;5094377;28;20951;-45
2021/04/07 06:55:41;;;;;;;4.88;1.67;;;;;;;1.92;70.26;100741.84;5091615;28;20042;-46
2021/04/07 06:58:09;;;;;;;6.40;2.20;;;;;;;1.93;69.70;100732.91;5091644;28;20028;-46
2021/04/07 07:00:36;;;;;;;6.95;2.35;;;;;;;1.95;69.68;100730.91;5090831;28;20028;-49
2021/04/07 07:03:09;;;;;;;6.82;2.60;;;;;;;2.01;70.08;100731.97;5088750;28;20020;-46
2021/04/07 07:05:38;;;;;;;8.95;2.00;;;;;;;2.17;69.22;100741.44;5088605;28;20028;-45
2021/04/07 07:08:08;;;;;;;11.60;3.42;;;;;;;2.05;69.30;100736.69;5092534;28;20484;-46
2021/04/07 07:10:48;;;;;;;9.52;2.55;;;;;;;2.07;69.55;100742.59;5089772;28;20565;-46
2021/04/07 07:13:25;;;;;;;10.48;2.75;;;;;;;2.24;69.22;100737.00;5091974;28;20066;-47
2021/04/07 07:15:52;;;;;;;8.95;2.58;;;;;;;2.36;68.54;100738.91;5088791;28;20031;-46
2021/04/07 07:18:25;;;;;;;7.88;2.03;;;;;;;2.48;68.13;100744.47;5093551;28;20452;-46
2021/04/07 07:20:51;;;;;;;10.10;2.70;;;;;;;2.54;67.97;100751.63;5088526;28;20093;-46
2021/04/07 07:23:28;;;;;;;3.85;1.92;;;;;;;2.57;67.71;100756.53;5093252;28;20024;-46
2021/04/07 07:26:01;;;;;;;5.15;2.30;;;;;;;2.69;67.51;100760.25;5087004;28;20110;-48
2021/04/07 07:28:28;;;;;;;11.68;3.03;;;;;;;2.57;68.01;100761.00;5090652;28;20028;-47
2021/04/07 07:30:54;;;;;;;10.00;2.38;;;;;;;2.54;67.75;100761.41;5091470;28;20036;-46
2021/04/07 07:33:25;;;;;;;9.38;1.88;;;;;;;2.53;67.31;100755.28;5088337;28;20027;-46
2021/04/07 07:36:05;;;;;;;9.25;1.83;;;;;;;2.51;67.16;100756.47;5088083;28;20059;-47
2021/04/07 07:38:33;;;;;;;7.85;1.90;;;;;;;2.29;67.88;100764.47;5092625;28;20043;-48
2021/04/07 07:41:06;;;;;;;5.15;2.20;;;;;;;2.47;67.28;100756.06;5085716;28;20092;-47
2021/04/07 07:43:36;;;;;;;7.53;2.50;;;;;;;2.71;67.32;100760.88;5087693;28;20024;-46
2021/04/07 07:46:21;;;;;;;4.03;1.70;;;;;;;2.69;65.14;100768.19;5089187;28;20043;-46
2021/04/07 07:48:47;;;;;;;6.30;2.00;;;;;;;2.83;65.60;100768.25;5091776;28;20488;-46
2021/04/07 07:51:21;;;;;;;5.35;1.60;;;;;;;3.17;64.49;100768.19;5095531;28;20043;-48
2021/04/07 07:53:49;;;;;;;7.95;2.22;;;;;;;3.17;64.64;100773.47;5095772;28;20061;-46
2021/04/07 07:56:36;;;;;;;6.32;1.83;;;;;;;3.01;64.47;100777.28;5091974;28;20040;-48
2021/04/07 07:59:02;;;;;;;8.07;2.00;;;;;;;3.02;64.21;100788.69;5088876;28;20070;-47
2021/04/07 08:01:40;;;;;;;9.30;2.28;;;;;;;3.07;64.53;100790.75;5090529;28;20516;-47
2021/04/07 08:04:06;;;;;;;4.25;1.55;;;;;;;3.07;64.13;100786.28;5087111;28;20998;-47
2021/04/07 08:06:33;;;;;;;13.38;2.47;;;;;;;2.98;64.07;100806.78;5090483;28;20038;-46
2021/04/07 08:08:58;;;;;;;4.45;1.60;;;;;;;3.05;64.01;100793.56;5089549;28;20131;-46
2021/04/07 08:11:25;;;;;;;11.77;3.00;;;;;;;3.29;62.76;100790.44;5088637;28;20486;-47
2021/04/07 08:13:53;;;;;;;7.00;2.15;;;;;;;3.06;64.06;100795.25;5089029;28;20765;-46
2021/04/07 08:16:21;;;;;;;6.45;2.17;;;;;;;3.24;63.94;100790.22;5088480;28;20032;-47
2021/04/07 08:18:49;;;;;;;6.68;2.10;;;;;;;3.26;63.74;100804.06;5087783;28;20089;-46
2021/04/07 08:21:16;;;;;;;4.40;1.73;;;;;;;3.27;62.44;100783.69;5088476;28;20396;-48
2021/04/07 08:23:44;;;;;;;4.93;1.70;;;;;;;3.62;61.53;100805.59;5089579;28;20930;-46
2021/04/07 08:26:10;;;;;;;5.95;1.73;;;;;;;3.56;61.88;100790.47;5087046;28;20051;-47
2021/04/07 08:28:40;;;;;;;5.07;1.60;;;;;;;3.60;61.41;100810.28;5089027;28;20190;-49
2021/04/07 08:31:12;;;;;;;7.18;2.08;;;;;;;3.80;62.12;100803.19;5083977;28;20034;-47
2021/04/07 08:33:38;;;;;;;5.40;2.17;;;;;;;3.63;61.79;100813.34;5085300;28;20859;-47
2021/04/07 08:36:04;;;;;;;14.13;2.58;;;;;;;3.54;62.33;100819.81;5089783;28;20107;-46
2021/04/07 08:38:32;;;;;;;6.50;1.92;;;;;;;3.85;61.74;100815.81;5088078;28;20548;-47
2021/04/07 08:41:23;;;;;;;8.20;2.20;;;;;;;3.88;60.59;100831.31;5090317;28;20448;-48
2021/04/07 08:43:53;;;;;;;5.40;2.30;;;;;;;3.79;60.13;100822.75;5086411;28;20053;-48
2021/04/07 08:46:23;;;;;;;8.63;2.28;;;;;;;3.86;60.42;100812.97;5089548;28;20019;-48
2021/04/07 08:48:49;;;;;;;5.30;3.03;;;;;;;3.72;60.95;100821.91;5075444;28;20757;-46
2021/04/07 08:51:17;;;;;;;4.20;2.15;;;;;;;3.90;60.85;100824.78;5088561;28;20028;-47
2021/04/07 08:53:50;;;;;;;5.20;2.53;;;;;;;3.86;60.66;100818.25;5067361;28;20020;-47
2021/04/07 08:56:24;;;;;;;5.95;1.80;;;;;;;4.21;58.42;100818.06;5087628;28;20524;-46
2021/04/07 08:58:58;;;;;;;6.30;2.20;;;;;;;4.39;58.21;100826.22;5090740;28;20412;-48
2021/04/07 09:01:29;;;;;;;8.73;2.17;;;;;;;4.31;57.51;100818.50;5091360;28;20027;-48
2021/04/07 09:04:12;;;;;;;7.82;2.00;;;;;;;4.29;57.47;100817.84;5092014;28;20023;-46
2021/04/07 09:06:57;;;;;;;6.05;1.95;;;;;;;4.22;57.51;100830.31;5093240;28;20741;-46
2021/04/07 09:09:23;;;;;;;7.22;2.08;;;;;;;4.34;57.21;100831.34;5096733;28;20686;-46
2021/04/07 09:11:50;;;;;;;5.90;2.60;;;;;;;4.01;58.50;100825.22;5094544;28;20035;-47
2021/04/07 09:14:17;;;;;;;15.00;4.30;;;;;;;3.86;58.88;100820.91;5091886;28;20645;-47
2021/04/07 09:16:43;;;;;;;4.82;2.03;;;;;;;3.94;59.40;100819.88;5092589;28;20051;-49
2021/04/07 09:19:18;;;;;;;4.70;1.67;;;;;;;4.31;58.31;100831.75;5087918;28;20113;-47
2021/04/07 09:22:06;;;;;;;7.32;2.33;;;;;;;4.50;57.83;100843.38;5078460;28;20173;-46
2021/04/07 09:24:44;;;;;;;8.80;2.10;;;;;;;4.18;57.96;100837.88;5096260;28;20932;-47
2021/04/07 09:27:28;;;;;;;8.80;2.20;;;;;;;4.32;57.59;100846.66;5089205;28;20035;-47
2021/04/07 09:30:04;;;;;;;9.32;2.72;;;;;;;4.57;57.80;100843.34;5089940;28;20028;-47
2021/04/07 09:32:30;;;;;;;6.40;2.53;;;;;;;4.37;55.90;100846.84;5091322;28;20041;-47
2021/04/07 09:34:58;;;;;;;7.93;2.50;;;;;;;4.58;56.64;100847.66;5092130;28;20669;-47
2021/04/07 09:37:23;;;;;;;6.30;2.20;;;;;;;4.61;56.95;100837.41;5092743;28;20031;-46
2021/04/07 09:39:49;;;;;;;10.82;2.80;;;;;;;4.60;57.82;100845.59;5091263;28;20028;-48
2021/04/07 09:42:16;;;;;;;6.03;2.53;;;;;;;4.44;56.88;100842.34;5092138;28;20027;-47
2021/04/07 09:44:41;;;;;;;9.23;2.25;;;;;;;4.75;57.67;100839.03;5092814;28;20039;-46
2021/04/07 09:47:07;;;;;;;8.80;1.75;;;;;;;4.46;56.72;100864.16;5090846;28;20035;-46
2021/04/07 09:49:33;;;;;;;7.32;2.28;;;;;;;4.40;56.76;100853.56;5091437;28;20085;-47
2021/04/07 09:51:59;;;;;;;4.88;1.90;;;;;;;4.68;56.50;100845.41;5088963;28;20032;-47
2021/04/07 09:54:39;;;;;;;7.88;2.42;;;;;;;4.62;56.30;100843.53;5092956;28;20020;-46
2021/04/07 09:57:06;;;;;;;4.75;1.45;;;;;;;4.98;54.77;100838.56;5090858;28;20104;-47
2021/04/07 09:59:35;;;;;;;8.13;2.78;;;;;;;5.10;55.45;100852.84;5090066;28;20043;-49
2021/04/07 10:02:09;;;;;;;10.80;2.13;;;;;;;5.02;55.15;100839.78;5090870;28;20498;-46
2021/04/07 10:04:43;;;;;;;8.98;2.03;;;;;;;5.18;54.23;100840.34;5092840;28;20039;-46
2021/04/07 10:07:13;;;;;;;2.05;1.50;;;;;;;4.86;54.18;100848.22;5090839;28;20035;-46
2021/04/07 10:09:41;;;;;;;8.30;2.03;;;;;;;4.73;54.88;100854.34;5091501;28;20031;-48
2021/04/07 10:12:08;;;;;;;9.18;2.13;;;;;;;4.69;55.83;100855.81;5088505;28;20023;-47
2021/04/07 10:14:33;;;;;;;8.52;1.88;;;;;;;4.88;55.86;100858.63;5076059;28;20031;-48
2021/04/07 10:17:14;;;;;;;8.45;2.38;;;;;;;4.88;54.34;100864.75;5091847;27;20023;-48
2021/04/07 10:19:40;;;;;;;6.95;2.35;;;;;;;5.37;54.07;100864.16;5092359;28;20500;-47
2021/04/07 10:22:14;;;;;;;6.57;2.45;;;;;;;5.98;53.06;100871.66;5087492;27;20473;-48
2021/04/07 10:24:41;;;;;;;8.80;2.60;;;;;;;5.90;53.63;100863.09;5095076;28;20042;-47
2021/04/07 10:27:08;;;;;;;10.18;2.75;;;;;;;5.07;52.95;100869.19;5091848;28;20470;-47
2021/04/07 10:29:33;;;;;;;6.15;2.30;;;;;;;4.72;54.13;100871.31;5088230;28;20492;-47
2021/04/07 10:32:00;;;;;;;4.15;2.05;;;;;;;4.71;53.85;100871.50;5092669;28;20024;-46
2021/04/07 10:34:33;;;;;;;6.40;2.40;;;;;;;4.63;53.21;100875.19;5092751;28;20552;-46
2021/04/07 10:36:59;;;;;;;6.35;1.88;;;;;;;4.83;52.90;100877.81;5073823;28;20055;-47
2021/04/07 10:39:34;;;;;;;6.57;2.42;;;;;;;4.62;52.39;100876.22;5085348;28;20019;-47
2021/04/07 10:41:59;;;;;;;6.47;2.38;;;;;;;4.88;53.20;100879.88;5087991;28;20032;-47
2021/04/07 10:44:27;;;;;;;7.35;2.00;;;;;;;5.31;51.88;100882.81;5088756;28;20039;-49
2021/04/07 10:46:54;;;;;;;8.20;2.08;;;;;;;5.57;51.47;100879.25;5085833;28;20085;-47
2021/04/07 10:49:20;;;;;;;6.38;1.85;;;;;;;5.30;51.27;100881.16;5090208;28;20429;-47
2021/04/07 10:51:57;;;;;;;9.27;2.80;;;;;;;5.44;52.03;100880.09;5087064;28;20027;-47
2021/04/07 10:54:26;;;;;;;10.07;2.38;;;;;;;5.25;51.95;100875.69;5089186;28;20040;-47
2021/04/07 10:56:58;;;;;;;7.93;2.25;;;;;;;5.43;51.83;100891.75;5087923;28;20016;-48
2021/04/07 10:59:28;;;;;;;8.27;2.17;;;;;;;5.56;51.13;100894.34;5086662;28;20093;-46
2021/04/07 11:01:54;;;;;;;9.90;2.33;;;;;;;5.78;51.28;100891.41;5087399;28;22003;-48
2021/04/07 11:04:19;;;;;;;10.63;2.30;;;;;;;5.78;51.22;100883.41;5072838;28;20042;-47
2021/04/07 11:06:50;;;;;;;8.18;1.50;;;;;;;5.70;50.50;100893.25;5091550;28;20469;-46
2021/04/07 11:09:15;;;;;;;5.55;1.70;;;;;;;5.65;48.97;100902.91;5090264;28;20023;-47
2021/04/07 11:11:42;;;;;;;3.80;1.77;;;;;;;5.67;49.74;100896.34;5086333;28;20078;-47
2021/04/07 11:14:10;;;;;;;7.75;1.60;;;;;;;5.66;49.12;100896.56;5072938;28;20027;-47
2021/04/07 11:16:36;;;;;;;8.63;1.52;;;;;;;6.20;48.68;100890.75;5086885;28;20031;-47
2021/04/07 11:19:13;;;;;;;4.50;1.60;;;;;;;6.49;48.01;100893.81;5078293;28;20531;-46
2021/04/07 11:21:39;;;;;;;8.23;1.65;;;;;;;6.28;48.20;100887.00;5089379;28;20479;-48
2021/04/07 11:24:05;;;;;;;4.38;1.45;;;;;;;5.95;47.43;100884.56;5090669;28;20046;-47
2021/04/07 11:26:30;;;;;;;5.80;1.80;;;;;;;5.97;47.02;100888.66;5090426;28;20192;-47
2021/04/07 11:28:56;;;;;;;3.55;1.60;;;;;;;5.58;47.44;100905.59;5087139;28;20564;-46
2021/04/07 11:31:26;;;;;;;5.57;1.20;;;;;;;5.38;47.82;100903.00;5086320;28;20028;-48
2021/04/07 11:33:56;;;;;;;6.13;1.73;;;;;;;5.72;46.98;100904.50;5075828;28;20024;-47